sensor_id;sensor_type;location;lat;lon;timestamp;P1;durP1;ratioP1;P2;durP2;ratioP2
73170;SDS011;61381;50.118;19.962;2023-12-14T00:00:21;51.65;;;14.18;;
73170;SDS011;61381;50.118;19.962;2023-12-14T00:05:42;89.43;;;15.90;;
73170;SDS011;61381;50.118;19.962;2023-12-14T00:10:42;59.47;;;14.63;;
73170;SDS011;61381;50.118;19.962;2023-12-14T00:15:45;64.82;;;13.30;;
73170;SDS011;61381;50.118;19.962;2023-12-14T00:20:45;86.88;;;19.70;;
73170;SDS011;61381;50.118;19.962;2023-12-14T00:25:46;81.53;;;18.52;;
73170;SDS011;61381;50.118;19.962;2023-12-14T00:30:49;93.65;;;18.73;;
73170;SDS011;61381;50.118;19.962;2023-12-14T00:35:49;67.25;;;16.27;;
73170;SDS011;61381;50.118;19.962;2023-12-14T00:40:51;93.20;;;19.27;;
73170;SDS011;61381;50.118;19.962;2023-12-14T00:45:53;77.28;;;16.77;;
73170;SDS011;61381;50.118;19.962;2023-12-14T00:50:54;79.10;;;16.95;;
73170;SDS011;61381;50.118;19.962;2023-12-14T00:55:55;68.00;;;15.68;;
73170;SDS011;61381;50.118;19.962;2023-12-14T01:00:57;70.38;;;15.82;;
73170;SDS011;61381;50.118;19.962;2023-12-14T01:05:58;51.95;;;14.70;;
73170;SDS011;61381;50.118;19.962;2023-12-14T01:10:59;54.50;;;14.63;;
73170;SDS011;61381;50.118;19.962;2023-12-14T01:16:01;57.63;;;16.65;;
73170;SDS011;61381;50.118;19.962;2023-12-14T01:21:02;56.65;;;15.10;;
73170;SDS011;61381;50.118;19.962;2023-12-14T01:26:03;60.90;;;16.65;;
73170;SDS011;61381;50.118;19.962;2023-12-14T01:31:06;41.58;;;12.27;;
73170;SDS011;61381;50.118;19.962;2023-12-14T01:36:07;51.97;;;15.45;;
73170;SDS011;61381;50.118;19.962;2023-12-14T01:41:08;42.85;;;11.88;;
73170;SDS011;61381;50.118;19.962;2023-12-14T01:51:12;34.92;;;11.35;;
73170;SDS011;61381;50.118;19.962;2023-12-14T01:56:12;48.67;;;13.50;;
73170;SDS011;61381;50.118;19.962;2023-12-14T02:01:16;72.32;;;16.38;;
73170;SDS011;61381;50.118;19.962;2023-12-14T02:06:21;43.55;;;13.00;;
73170;SDS011;61381;50.118;19.962;2023-12-14T02:11:22;60.00;;;14.48;;
73170;SDS011;61381;50.118;19.962;2023-12-14T02:16:25;38.47;;;11.57;;
73170;SDS011;61381;50.118;19.962;2023-12-14T02:21:25;34.88;;;12.52;;
73170;SDS011;61381;50.118;19.962;2023-12-14T02:26:28;38.15;;;12.68;;
73170;SDS011;61381;50.118;19.962;2023-12-14T02:31:29;43.53;;;12.38;;
73170;SDS011;61381;50.118;19.962;2023-12-14T02:36:30;31.35;;;10.50;;
73170;SDS011;61381;50.118;19.962;2023-12-14T02:41:32;37.63;;;11.50;;
73170;SDS011;61381;50.118;19.962;2023-12-14T02:46:33;62.10;;;16.75;;
73170;SDS011;61381;50.118;19.962;2023-12-14T02:51:33;39.10;;;11.52;;
73170;SDS011;61381;50.118;19.962;2023-12-14T02:56:36;39.47;;;12.00;;
73170;SDS011;61381;50.118;19.962;2023-12-14T03:01:36;40.83;;;12.10;;
73170;SDS011;61381;50.118;19.962;2023-12-14T03:06:37;33.80;;;10.77;;
73170;SDS011;61381;50.118;19.962;2023-12-14T03:11:39;27.13;;;8.40;;
73170;SDS011;61381;50.118;19.962;2023-12-14T03:16:40;36.60;;;11.27;;
73170;SDS011;61381;50.118;19.962;2023-12-14T03:21:41;28.02;;;11.05;;
73170;SDS011;61381;50.118;19.962;2023-12-14T03:26:43;27.80;;;9.82;;
73170;SDS011;61381;50.118;19.962;2023-12-14T03:31:44;40.17;;;11.38;;
73170;SDS011;61381;50.118;19.962;2023-12-14T03:36:45;43.15;;;12.43;;
73170;SDS011;61381;50.118;19.962;2023-12-14T03:41:47;37.35;;;9.57;;
73170;SDS011;61381;50.118;19.962;2023-12-14T03:46:48;30.35;;;8.95;;
73170;SDS011;61381;50.118;19.962;2023-12-14T03:51:49;39.40;;;11.95;;
73170;SDS011;61381;50.118;19.962;2023-12-14T03:56:51;35.97;;;10.40;;
73170;SDS011;61381;50.118;19.962;2023-12-14T04:01:52;31.77;;;10.35;;
73170;SDS011;61381;50.118;19.962;2023-12-14T04:06:53;40.92;;;11.52;;
73170;SDS011;61381;50.118;19.962;2023-12-14T04:11:55;33.40;;;9.57;;
73170;SDS011;61381;50.118;19.962;2023-12-14T04:16:56;33.25;;;9.43;;
73170;SDS011;61381;50.118;19.962;2023-12-14T04:21:57;36.28;;;10.18;;
73170;SDS011;61381;50.118;19.962;2023-12-14T04:26:59;32.83;;;9.10;;
73170;SDS011;61381;50.118;19.962;2023-12-14T04:32:00;55.45;;;10.75;;
73170;SDS011;61381;50.118;19.962;2023-12-14T04:37:01;48.33;;;9.68;;
73170;SDS011;61381;50.118;19.962;2023-12-14T04:42:03;36.72;;;10.65;;
73170;SDS011;61381;50.118;19.962;2023-12-14T04:47:04;46.63;;;14.95;;
73170;SDS011;61381;50.118;19.962;2023-12-14T04:52:05;36.75;;;10.02;;
73170;SDS011;61381;50.118;19.962;2023-12-14T04:57:07;54.25;;;13.27;;
73170;SDS011;61381;50.118;19.962;2023-12-14T05:02:08;47.50;;;11.38;;
73170;SDS011;61381;50.118;19.962;2023-12-14T05:07:09;36.60;;;10.13;;
73170;SDS011;61381;50.118;19.962;2023-12-14T05:12:11;42.28;;;13.10;;
73170;SDS011;61381;50.118;19.962;2023-12-14T05:17:12;55.97;;;16.52;;
73170;SDS011;61381;50.118;19.962;2023-12-14T05:22:13;40.55;;;12.10;;
73170;SDS011;61381;50.118;19.962;2023-12-14T05:27:15;37.20;;;11.55;;
73170;SDS011;61381;50.118;19.962;2023-12-14T05:32:16;50.17;;;15.00;;
73170;SDS011;61381;50.118;19.962;2023-12-14T05:37:17;37.28;;;13.10;;
73170;SDS011;61381;50.118;19.962;2023-12-14T05:42:19;39.08;;;12.48;;
73170;SDS011;61381;50.118;19.962;2023-12-14T05:47:20;40.05;;;12.43;;
73170;SDS011;61381;50.118;19.962;2023-12-14T05:52:21;38.67;;;13.20;;
73170;SDS011;61381;50.118;19.962;2023-12-14T05:57:23;53.95;;;22.60;;
73170;SDS011;61381;50.118;19.962;2023-12-14T06:02:24;46.95;;;15.35;;
73170;SDS011;61381;50.118;19.962;2023-12-14T06:07:25;33.65;;;12.70;;
73170;SDS011;61381;50.118;19.962;2023-12-14T06:12:27;38.75;;;13.52;;
73170;SDS011;61381;50.118;19.962;2023-12-14T06:17:28;42.65;;;13.63;;
73170;SDS011;61381;50.118;19.962;2023-12-14T06:22:29;40.38;;;12.15;;
73170;SDS011;61381;50.118;19.962;2023-12-14T06:27:31;44.00;;;14.05;;
73170;SDS011;61381;50.118;19.962;2023-12-14T06:32:32;38.17;;;13.45;;
73170;SDS011;61381;50.118;19.962;2023-12-14T06:37:33;41.45;;;14.68;;
73170;SDS011;61381;50.118;19.962;2023-12-14T06:42:35;30.55;;;11.45;;
73170;SDS011;61381;50.118;19.962;2023-12-14T06:47:36;40.92;;;15.27;;
73170;SDS011;61381;50.118;19.962;2023-12-14T06:52:37;41.55;;;15.30;;
73170;SDS011;61381;50.118;19.962;2023-12-14T06:57:39;52.33;;;17.00;;
73170;SDS011;61381;50.118;19.962;2023-12-14T07:02:40;54.90;;;17.95;;
73170;SDS011;61381;50.118;19.962;2023-12-14T07:07:41;46.50;;;15.48;;
73170;SDS011;61381;50.118;19.962;2023-12-14T07:12:43;57.53;;;19.60;;
73170;SDS011;61381;50.118;19.962;2023-12-14T07:17:44;44.15;;;16.52;;
73170;SDS011;61381;50.118;19.962;2023-12-14T07:22:45;38.58;;;13.45;;
73170;SDS011;61381;50.118;19.962;2023-12-14T07:27:47;44.67;;;14.40;;
73170;SDS011;61381;50.118;19.962;2023-12-14T07:32:48;46.55;;;16.63;;
73170;SDS011;61381;50.118;19.962;2023-12-14T07:37:49;39.42;;;15.63;;
73170;SDS011;61381;50.118;19.962;2023-12-14T07:42:51;49.95;;;18.33;;
73170;SDS011;61381;50.118;19.962;2023-12-14T07:47:52;44.53;;;16.65;;
73170;SDS011;61381;50.118;19.962;2023-12-14T07:52:52;38.75;;;14.57;;
73170;SDS011;61381;50.118;19.962;2023-12-14T07:57:55;48.75;;;18.48;;
73170;SDS011;61381;50.118;19.962;2023-12-14T08:02:57;37.88;;;13.90;;
73170;SDS011;61381;50.118;19.962;2023-12-14T08:13:00;27.20;;;10.15;;
73170;SDS011;61381;50.118;19.962;2023-12-14T08:18:01;42.63;;;13.68;;
73170;SDS011;61381;50.118;19.962;2023-12-14T08:23:02;38.42;;;13.32;;
73170;SDS011;61381;50.118;19.962;2023-12-14T08:28:04;43.90;;;15.35;;
73170;SDS011;61381;50.118;19.962;2023-12-14T08:33:05;33.92;;;11.55;;
73170;SDS011;61381;50.118;19.962;2023-12-14T08:38:06;32.67;;;11.32;;
73170;SDS011;61381;50.118;19.962;2023-12-14T08:43:08;49.95;;;16.45;;
73170;SDS011;61381;50.118;19.962;2023-12-14T08:48:09;52.15;;;16.27;;
73170;SDS011;61381;50.118;19.962;2023-12-14T08:53:10;52.70;;;18.77;;
73170;SDS011;61381;50.118;19.962;2023-12-14T08:58:12;35.88;;;13.50;;
73170;SDS011;61381;50.118;19.962;2023-12-14T09:03:13;40.88;;;15.25;;
73170;SDS011;61381;50.118;19.962;2023-12-14T09:08:14;32.78;;;12.55;;
73170;SDS011;61381;50.118;19.962;2023-12-14T09:13:16;34.42;;;13.30;;
73170;SDS011;61381;50.118;19.962;2023-12-14T09:18:17;39.80;;;13.63;;
73170;SDS011;61381;50.118;19.962;2023-12-14T09:23:18;32.95;;;13.10;;
73170;SDS011;61381;50.118;19.962;2023-12-14T09:28:20;36.33;;;13.18;;
73170;SDS011;61381;50.118;19.962;2023-12-14T09:33:21;34.47;;;14.73;;
73170;SDS011;61381;50.118;19.962;2023-12-14T09:38:22;40.78;;;15.48;;
73170;SDS011;61381;50.118;19.962;2023-12-14T09:43:24;40.83;;;14.32;;
73170;SDS011;61381;50.118;19.962;2023-12-14T09:48:25;41.45;;;15.18;;
73170;SDS011;61381;50.118;19.962;2023-12-14T09:53:27;35.03;;;14.07;;
73170;SDS011;61381;50.118;19.962;2023-12-14T10:03:33;35.08;;;12.38;;
73170;SDS011;61381;50.118;19.962;2023-12-14T10:13:38;29.33;;;10.98;;
73170;SDS011;61381;50.118;19.962;2023-12-14T10:18:39;29.00;;;12.32;;
73170;SDS011;61381;50.118;19.962;2023-12-14T10:28:42;35.50;;;13.18;;
73170;SDS011;61381;50.118;19.962;2023-12-14T10:33:43;40.25;;;14.20;;
73170;SDS011;61381;50.118;19.962;2023-12-14T10:43:49;29.70;;;10.52;;
73170;SDS011;61381;50.118;19.962;2023-12-14T10:48:51;33.40;;;13.30;;
73170;SDS011;61381;50.118;19.962;2023-12-14T10:53:52;37.58;;;15.63;;
73170;SDS011;61381;50.118;19.962;2023-12-14T11:03:56;33.85;;;11.85;;
73170;SDS011;61381;50.118;19.962;2023-12-14T11:09:00;41.33;;;14.88;;
73170;SDS011;61381;50.118;19.962;2023-12-14T11:14:04;37.35;;;14.00;;
73170;SDS011;61381;50.118;19.962;2023-12-14T11:19:24;32.88;;;12.25;;
73170;SDS011;61381;50.118;19.962;2023-12-14T11:24:29;38.20;;;13.45;;
73170;SDS011;61381;50.118;19.962;2023-12-14T11:34:32;29.00;;;11.38;;
73170;SDS011;61381;50.118;19.962;2023-12-14T11:44:35;32.72;;;12.05;;
73170;SDS011;61381;50.118;19.962;2023-12-14T11:49:35;36.83;;;14.00;;
73170;SDS011;61381;50.118;19.962;2023-12-14T11:59:39;25.92;;;11.38;;
73170;SDS011;61381;50.118;19.962;2023-12-14T12:04:39;27.10;;;11.45;;
73170;SDS011;61381;50.118;19.962;2023-12-14T12:09:50;32.03;;;13.48;;
73170;SDS011;61381;50.118;19.962;2023-12-14T12:14:53;30.02;;;13.50;;
73170;SDS011;61381;50.118;19.962;2023-12-14T12:19:54;31.15;;;12.88;;
73170;SDS011;61381;50.118;19.962;2023-12-14T12:29:57;29.38;;;13.77;;
73170;SDS011;61381;50.118;19.962;2023-12-14T12:34:57;31.33;;;11.95;;
73170;SDS011;61381;50.118;19.962;2023-12-14T12:39:58;23.42;;;10.45;;
73170;SDS011;61381;50.118;19.962;2023-12-14T12:50:01;27.25;;;10.85;;
73170;SDS011;61381;50.118;19.962;2023-12-14T12:55:02;30.80;;;12.35;;
73170;SDS011;61381;50.118;19.962;2023-12-14T13:00:06;29.98;;;10.90;;
73170;SDS011;61381;50.118;19.962;2023-12-14T13:05:08;30.05;;;12.52;;
73170;SDS011;61381;50.118;19.962;2023-12-14T13:10:10;28.85;;;11.65;;
73170;SDS011;61381;50.118;19.962;2023-12-14T13:15:13;26.63;;;11.93;;
73170;SDS011;61381;50.118;19.962;2023-12-14T13:20:14;27.90;;;11.25;;
73170;SDS011;61381;50.118;19.962;2023-12-14T13:25:15;23.65;;;11.75;;
73170;SDS011;61381;50.118;19.962;2023-12-14T13:35:18;22.80;;;10.43;;
73170;SDS011;61381;50.118;19.962;2023-12-14T13:45:21;27.15;;;11.88;;
73170;SDS011;61381;50.118;19.962;2023-12-14T13:50:21;33.88;;;11.73;;
73170;SDS011;61381;50.118;19.962;2023-12-14T14:00:24;16.02;;;8.23;;
73170;SDS011;61381;50.118;19.962;2023-12-14T14:05:25;23.23;;;10.35;;
73170;SDS011;61381;50.118;19.962;2023-12-14T14:15:28;28.15;;;13.10;;
73170;SDS011;61381;50.118;19.962;2023-12-14T14:20:29;28.42;;;13.13;;
73170;SDS011;61381;50.118;19.962;2023-12-14T14:25:30;30.58;;;14.32;;
73170;SDS011;61381;50.118;19.962;2023-12-14T14:35:33;35.58;;;13.15;;
73170;SDS011;61381;50.118;19.962;2023-12-14T14:40:34;35.88;;;15.40;;
73170;SDS011;61381;50.118;19.962;2023-12-14T14:50:37;37.45;;;15.82;;
73170;SDS011;61381;50.118;19.962;2023-12-14T14:55:37;45.95;;;20.85;;
73170;SDS011;61381;50.118;19.962;2023-12-14T15:05:40;42.15;;;16.55;;
73170;SDS011;61381;50.118;19.962;2023-12-14T15:10:41;41.97;;;15.55;;
73170;SDS011;61381;50.118;19.962;2023-12-14T15:15:43;46.78;;;19.35;;
73170;SDS011;61381;50.118;19.962;2023-12-14T15:20:44;49.20;;;19.02;;
73170;SDS011;61381;50.118;19.962;2023-12-14T15:25:45;46.55;;;21.35;;
73170;SDS011;61381;50.118;19.962;2023-12-14T15:35:48;41.78;;;17.95;;
73170;SDS011;61381;50.118;19.962;2023-12-14T15:45:51;44.45;;;16.23;;
73170;SDS011;61381;50.118;19.962;2023-12-14T15:50:52;43.63;;;16.70;;
73170;SDS011;61381;50.118;19.962;2023-12-14T16:00:55;37.67;;;15.57;;
73170;SDS011;61381;50.118;19.962;2023-12-14T16:05:56;46.92;;;21.65;;
73170;SDS011;61381;50.118;19.962;2023-12-14T16:15:58;48.53;;;18.80;;
73170;SDS011;61381;50.118;19.962;2023-12-14T16:20:59;52.25;;;20.17;;
73170;SDS011;61381;50.118;19.962;2023-12-14T16:26:00;48.47;;;21.10;;
73170;SDS011;61381;50.118;19.962;2023-12-14T16:36:09;58.85;;;21.70;;
73170;SDS011;61381;50.118;19.962;2023-12-14T16:41:10;58.55;;;22.20;;
73170;SDS011;61381;50.118;19.962;2023-12-14T16:46:16;62.72;;;22.58;;
73170;SDS011;61381;50.118;19.962;2023-12-14T16:51:18;59.53;;;21.30;;
73170;SDS011;61381;50.118;19.962;2023-12-14T17:01:21;43.80;;;17.98;;
73170;SDS011;61381;50.118;19.962;2023-12-14T17:06:22;50.55;;;19.23;;
73170;SDS011;61381;50.118;19.962;2023-12-14T17:11:23;60.13;;;19.73;;
73170;SDS011;61381;50.118;19.962;2023-12-14T17:16:25;58.33;;;21.67;;
73170;SDS011;61381;50.118;19.962;2023-12-14T17:21:27;54.72;;;22.13;;
73170;SDS011;61381;50.118;19.962;2023-12-14T17:26:28;54.50;;;20.13;;
73170;SDS011;61381;50.118;19.962;2023-12-14T17:36:31;46.13;;;19.67;;
73170;SDS011;61381;50.118;19.962;2023-12-14T17:41:32;52.15;;;20.95;;
73170;SDS011;61381;50.118;19.962;2023-12-14T17:46:34;62.88;;;23.17;;
73170;SDS011;61381;50.118;19.962;2023-12-14T17:51:38;59.20;;;21.58;;
73170;SDS011;61381;50.118;19.962;2023-12-14T17:56:39;57.80;;;23.88;;
73170;SDS011;61381;50.118;19.962;2023-12-14T18:01:43;55.58;;;22.70;;
73170;SDS011;61381;50.118;19.962;2023-12-14T18:06:45;60.40;;;22.83;;
73170;SDS011;61381;50.118;19.962;2023-12-14T18:11:45;73.70;;;25.92;;
73170;SDS011;61381;50.118;19.962;2023-12-14T18:21:48;48.88;;;21.95;;
73170;SDS011;61381;50.118;19.962;2023-12-14T18:26:49;50.72;;;21.52;;
73170;SDS011;61381;50.118;19.962;2023-12-14T18:36:52;46.25;;;19.73;;
73170;SDS011;61381;50.118;19.962;2023-12-14T18:41:53;44.67;;;18.05;;
73170;SDS011;61381;50.118;19.962;2023-12-14T18:51:56;48.05;;;23.48;;
73170;SDS011;61381;50.118;19.962;2023-12-14T18:56:57;38.85;;;16.75;;
73170;SDS011;61381;50.118;19.962;2023-12-14T19:07:00;23.63;;;11.65;;
73170;SDS011;61381;50.118;19.962;2023-12-14T19:12:01;23.02;;;10.35;;
73170;SDS011;61381;50.118;19.962;2023-12-14T19:22:04;12.80;;;5.95;;
73170;SDS011;61381;50.118;19.962;2023-12-14T19:27:05;21.48;;;10.13;;
73170;SDS011;61381;50.118;19.962;2023-12-14T19:32:07;13.27;;;7.22;;
73170;SDS011;61381;50.118;19.962;2023-12-14T19:37:08;23.80;;;9.32;;
73170;SDS011;61381;50.118;19.962;2023-12-14T19:42:09;18.27;;;7.20;;
73170;SDS011;61381;50.118;19.962;2023-12-14T19:47:11;16.58;;;8.43;;
73170;SDS011;61381;50.118;19.962;2023-12-14T19:52:12;24.77;;;10.95;;
73170;SDS011;61381;50.118;19.962;2023-12-14T19:57:13;26.98;;;10.15;;
73170;SDS011;61381;50.118;19.962;2023-12-14T20:02:15;17.92;;;9.10;;
73170;SDS011;61381;50.118;19.962;2023-12-14T20:07:16;26.20;;;12.63;;
73170;SDS011;61381;50.118;19.962;2023-12-14T20:12:17;12.30;;;7.45;;
73170;SDS011;61381;50.118;19.962;2023-12-14T20:17:19;26.73;;;12.50;;
73170;SDS011;61381;50.118;19.962;2023-12-14T20:22:20;20.67;;;8.27;;
73170;SDS011;61381;50.118;19.962;2023-12-14T20:27:21;15.18;;;7.05;;
73170;SDS011;61381;50.118;19.962;2023-12-14T20:32:23;18.38;;;7.00;;
73170;SDS011;61381;50.118;19.962;2023-12-14T20:37:24;21.92;;;8.40;;
73170;SDS011;61381;50.118;19.962;2023-12-14T20:42:25;18.58;;;7.38;;
73170;SDS011;61381;50.118;19.962;2023-12-14T20:47:27;16.95;;;7.57;;
73170;SDS011;61381;50.118;19.962;2023-12-14T20:52:28;13.73;;;7.45;;
73170;SDS011;61381;50.118;19.962;2023-12-14T20:57:29;18.25;;;7.60;;
73170;SDS011;61381;50.118;19.962;2023-12-14T21:02:31;15.15;;;6.03;;
73170;SDS011;61381;50.118;19.962;2023-12-14T21:07:32;13.32;;;6.45;;
73170;SDS011;61381;50.118;19.962;2023-12-14T21:12:33;10.40;;;5.80;;
73170;SDS011;61381;50.118;19.962;2023-12-14T21:17:35;10.45;;;5.75;;
73170;SDS011;61381;50.118;19.962;2023-12-14T21:22:36;10.15;;;5.63;;
73170;SDS011;61381;50.118;19.962;2023-12-14T21:27:37;10.05;;;4.63;;
73170;SDS011;61381;50.118;19.962;2023-12-14T21:32:39;18.58;;;9.85;;
73170;SDS011;61381;50.118;19.962;2023-12-14T21:37:41;16.20;;;7.28;;
73170;SDS011;61381;50.118;19.962;2023-12-14T21:47:44;22.17;;;10.23;;
73170;SDS011;61381;50.118;19.962;2023-12-14T21:52:45;9.40;;;3.63;;
73170;SDS011;61381;50.118;19.962;2023-12-14T21:57:46;11.65;;;5.20;;
73170;SDS011;61381;50.118;19.962;2023-12-14T22:02:48;15.07;;;7.25;;
73170;SDS011;61381;50.118;19.962;2023-12-14T22:07:49;12.02;;;5.97;;
73170;SDS011;61381;50.118;19.962;2023-12-14T22:12:50;17.20;;;8.20;;
73170;SDS011;61381;50.118;19.962;2023-12-14T22:17:52;15.60;;;7.28;;
73170;SDS011;61381;50.118;19.962;2023-12-14T22:22:53;17.63;;;7.88;;
73170;SDS011;61381;50.118;19.962;2023-12-14T22:27:53;19.73;;;7.65;;
73170;SDS011;61381;50.118;19.962;2023-12-14T22:32:56;15.48;;;6.65;;
73170;SDS011;61381;50.118;19.962;2023-12-14T22:37:56;18.40;;;6.25;;
73170;SDS011;61381;50.118;19.962;2023-12-14T22:42:57;17.67;;;8.32;;
73170;SDS011;61381;50.118;19.962;2023-12-14T22:48:00;20.27;;;9.00;;
73170;SDS011;61381;50.118;19.962;2023-12-14T22:53:00;26.42;;;10.48;;
73170;SDS011;61381;50.118;19.962;2023-12-14T22:58:01;23.42;;;8.52;;
73170;SDS011;61381;50.118;19.962;2023-12-14T23:03:03;24.33;;;9.73;;
73170;SDS011;61381;50.118;19.962;2023-12-14T23:08:04;17.45;;;7.10;;
73170;SDS011;61381;50.118;19.962;2023-12-14T23:13:05;18.20;;;7.93;;
73170;SDS011;61381;50.118;19.962;2023-12-14T23:18:08;15.10;;;7.88;;
73170;SDS011;61381;50.118;19.962;2023-12-14T23:23:08;15.40;;;6.75;;
73170;SDS011;61381;50.118;19.962;2023-12-14T23:28:09;17.65;;;8.70;;
73170;SDS011;61381;50.118;19.962;2023-12-14T23:33:11;12.82;;;6.60;;
73170;SDS011;61381;50.118;19.962;2023-12-14T23:38:12;16.42;;;7.03;;
73170;SDS011;61381;50.118;19.962;2023-12-14T23:43:13;10.80;;;5.30;;
73170;SDS011;61381;50.118;19.962;2023-12-14T23:48:15;11.60;;;5.05;;
73170;SDS011;61381;50.118;19.962;2023-12-14T23:53:16;9.18;;;4.32;;
73170;SDS011;61381;50.118;19.962;2023-12-14T23:58:17;21.23;;;8.05;;
